Aéroport int. Stanfield de Halifax, Nouvelle Écosse

Conditions des dernières 24 heures

Date / Heure
(HAA)
Conditions Temp
(°C)
Humidité
(%)
Point de rosée
(°C)
Vent
(km/h)
Pression
(kPa)
Visibilité
(km)
30 octobre 2014
12:00 Généralement nuageux 11 74 7 NO 14 100,9 24
11:00 Généralement nuageux 11 76 7 NO 22 100,9 24
10:00 Généralement nuageux 10   82 7 NO 13 100,9 24
9:00 Faible averse de pluie 10   83 7 ONO 12 100,9 24
8:00 Généralement nuageux 12 86 9 NO 27 100,8 24
7:00 Généralement nuageux 13 86 11 ONO 20 100,7 24
6:00 Nuageux 15 96 14 OSO 20 100,7 16
5:00 Brume 15 98 15 SO 21 rafale 32 100,6 4
4:00 Faible averse de pluie 15 99 15 SO 27 100,7 2
3:00 Bruine faible 15 99 15 SSO 26 100,7 1
2:00 Brume 15 99 15 SSO 25 rafale 36 100,7 1
1:00 Brume 16   99 15 SSO 22 rafale 37 100,7 2
0:00 Brume 15 99 15 SSO 26 100,8 1
29 octobre 2014
23:00 Brume 15 98 15 SSO 26 100,9 2
22:00 Brume 16   98 15 SSO 23 rafale 37 100,9 5
21:00 Brume 16   97 15 SSO 27 rafale 39 101,0 6
20:00 Brume 16   98 15 SSO 25 rafale 38 101,0 5
19:00 Brume 15 98 15 SSO 30 rafale 44 101,0 1
18:00 Brume 15 98 15 SSO 30 rafale 42 101,0 2
17:00 Brume 16   97 15 S 24 rafale 40 101,1 2
16:00 Brume 15 97 15 S 23 rafale 35 101,1 2
15:00 Brume 15 93 14 S 26 101,2 4
14:00 Nuageux 15 87 13 S 29 rafale 42 101,3 24
13:00 Nuageux 14 87 12 SSE 26 rafale 42 101,4 24
12:00 Généralement nuageux 13 89 11 SSE 25 rafale 40 101,5 24
N.D. non disponible
↑ température la plus haute
↓ température la plus basse

Si vous désirez plus de données historiques sur les conditions météo, s.v.p. visitez Données climatologiques en ligne.

Date de modification :